Time;durP1;ratioP1;P1;durP2;ratioP2;P2;SDS_P1;SDS_P2;PMS_P1;PMS_P2;Temp;Humidity;BMP_temperature;BMP_pressure;BME280_temperature;BME280_humidity;BME280_pressure;Samples;Min_cycle;Max_cycle;Signal;HPM_P1;HPM_P2
2022/09/25 00:01:25;;;;;;;17.65;13.43;;;14.40;99.90;;;;;;5033510;28;20026;-65
2022/09/25 00:03:51;;;;;;;17.67;13.35;;;14.60;99.90;;;;;;5033675;28;20048;-65
2022/09/25 00:06:21;;;;;;;17.97;13.27;;;14.60;99.90;;;;;;5033506;28;20112;-66
2022/09/25 00:08:47;;;;;;;19.77;13.40;;;14.70;99.90;;;;;;5037931;28;20463;-66
2022/09/25 00:11:27;;;;;;;14.37;12.67;;;14.70;99.90;;;;;;5037672;28;20044;-65
2022/09/25 00:13:54;;;;;;;18.42;11.93;;;14.60;99.90;;;;;;5038026;28;20065;-66
2022/09/25 00:16:23;;;;;;;17.30;13.57;;;14.50;99.90;;;;;;5037097;28;20021;-66
2022/09/25 00:21:34;;;;;;;16.63;13.43;;;14.40;99.90;;;;;;5037811;28;20036;-65
2022/09/25 00:24:03;;;;;;;16.98;12.85;;;14.40;99.90;;;;;;5037557;28;20032;-66
2022/09/25 00:26:32;;;;;;;15.20;12.38;;;14.30;99.90;;;;;;5037705;28;20028;-66
2022/09/25 00:29:01;;;;;;;18.25;12.98;;;14.30;99.90;;;;;;5037375;28;20026;-66
2022/09/25 00:31:28;;;;;;;16.90;12.85;;;14.40;99.90;;;;;;5037125;28;20100;-66
2022/09/25 00:33:57;;;;;;;14.82;11.88;;;14.40;99.90;;;;;;5036947;28;20029;-66
2022/09/25 00:36:22;;;;;;;17.92;12.57;;;14.40;99.90;;;;;;5037013;28;20025;-65
2022/09/25 00:38:49;;;;;;;13.70;11.70;;;14.50;99.90;;;;;;5037472;28;20025;-65
2022/09/25 00:41:16;;;;;;;15.52;12.18;;;14.50;99.90;;;;;;5037074;28;20021;-66
2022/09/25 00:43:45;;;;;;;15.77;11.98;;;14.60;99.90;;;;;;5037440;28;20148;-65
2022/09/25 00:46:22;;;;;;;16.65;13.07;;;14.50;99.90;;;;;;5037347;28;20033;-66
2022/09/25 00:48:59;;;;;;;16.02;12.70;;;14.50;99.90;;;;;;5037483;28;20025;-66
2022/09/25 00:51:47;;;;;;;14.88;12.18;;;14.40;99.90;;;;;;5037412;28;20034;-65
2022/09/25 00:54:17;;;;;;;14.85;11.48;;;14.40;99.90;;;;;;5037092;28;20040;-65
2022/09/25 00:56:46;;;;;;;14.68;11.55;;;14.60;99.90;;;;;;5036772;28;20034;-65
2022/09/25 00:59:16;;;;;;;15.30;11.30;;;14.50;99.90;;;;;;5036500;28;20099;-65
2022/09/25 01:01:42;;;;;;;13.93;11.32;;;14.50;99.90;;;;;;5035813;28;20112;-65
2022/09/25 01:04:08;;;;;;;16.70;12.57;;;14.50;99.90;;;;;;5036558;28;20061;-65
2022/09/25 01:06:34;;;;;;;14.85;11.38;;;14.50;99.90;;;;;;5035172;28;20025;-65
2022/09/25 01:09:00;;;;;;;;;;;14.50;99.90;;;;;;5036638;28;20072;-65
2022/09/25 01:11:26;;;;;;;14.05;12.18;;;14.40;99.90;;;;;;5036329;28;19905;-65
2022/09/25 01:13:57;;;;;;;15.30;12.70;;;14.30;99.90;;;;;;5034896;28;20087;-64
2022/09/25 01:16:51;;;;;;;16.55;12.82;;;14.30;99.90;;;;;;5036005;28;20364;-65
2022/09/25 01:19:51;;;;;;;18.25;12.55;;;14.30;99.90;;;;;;5034984;28;20021;-65
2022/09/25 01:22:19;;;;;;;17.70;12.48;;;14.20;99.90;;;;;;5036535;28;20022;-65
2022/09/25 01:24:54;;;;;;;18.30;13.27;;;14.30;99.90;;;;;;5034685;28;20083;-65
2022/09/25 01:27:32;;;;;;;17.75;13.30;;;14.40;99.90;;;;;;5036289;28;20022;-65
2022/09/25 01:30:08;;;;;;;19.50;13.60;;;14.40;99.90;;;;;;5035977;28;20103;-64
2022/09/25 01:33:06;;;;;;;18.02;14.13;;;14.30;99.90;;;;;;5036193;28;20080;-65
2022/09/25 01:36:02;;;;;;;18.05;13.93;;;14.30;99.90;;;;;;5036271;28;20097;-64
2022/09/25 01:38:49;;;;;;;17.73;13.35;;;14.40;99.90;;;;;;5035873;28;20060;-64
2022/09/25 01:41:24;;;;;;;18.10;13.15;;;14.50;99.90;;;;;;5035762;28;20030;-64
2022/09/25 01:43:56;;;;;;;18.13;13.80;;;14.40;99.90;;;;;;5036091;28;20017;-64
2022/09/25 01:46:27;;;;;;;17.58;13.02;;;14.40;99.90;;;;;;5035764;28;20021;-64
2022/09/25 01:48:59;;;;;;;19.05;14.35;;;14.20;99.90;;;;;;5035795;28;20079;-64
2022/09/25 01:51:40;;;;;;;24.17;14.40;;;14.30;99.90;;;;;;5035958;28;20017;-64
2022/09/25 01:54:21;;;;;;;17.55;13.98;;;14.30;99.90;;;;;;5035930;28;20026;-64
2022/09/25 01:56:52;;;;;;;18.45;13.30;;;14.40;99.90;;;;;;5035276;28;20029;-66
2022/09/25 01:59:43;;;;;;;16.98;13.70;;;14.40;99.90;;;;;;5035594;28;20482;-66
2022/09/25 02:02:13;;;;;;;17.27;13.02;;;14.40;99.90;;;;;;5034200;28;20029;-65
2022/09/25 02:04:45;;;;;;;17.48;13.07;;;14.50;99.90;;;;;;5035779;28;20021;-66
2022/09/25 02:07:15;;;;;;;17.73;13.38;;;14.50;99.90;;;;;;5034348;28;20037;-64
2022/09/25 02:09:46;;;;;;;18.77;13.20;;;14.40;99.90;;;;;;5035530;28;20031;-64
2022/09/25 02:12:20;;;;;;;17.05;13.50;;;14.40;99.90;;;;;;5035389;28;20025;-64
2022/09/25 02:14:51;;;;;;;16.90;13.13;;;14.40;99.90;;;;;;5035399;28;20486;-65
2022/09/25 02:23:04;;;;;;;15.73;12.88;;;14.40;99.90;;;;;;5034888;28;20040;-64
2022/09/25 02:26:08;;;;;;;17.83;13.27;;;14.40;99.90;;;;;;5035257;28;20104;-65
2022/09/25 02:28:34;;;;;;;17.25;12.95;;;14.20;99.90;;;;;;5024173;28;20036;-65
2022/09/25 02:31:01;;;;;;;;;;;14.20;99.90;;;;;;5034682;28;20025;-65
2022/09/25 02:33:27;;;;;;;16.67;13.13;;;14.20;99.90;;;;;;5034924;28;19995;-65
2022/09/25 02:35:53;;;;;;;15.85;12.38;;;14.10;99.90;;;;;;5035294;28;20125;-65
2022/09/25 02:38:19;;;;;;;17.27;12.73;;;14.30;99.90;;;;;;5035371;28;20026;-64
2022/09/25 02:40:54;;;;;;;16.42;11.90;;;14.40;99.90;;;;;;5035354;28;20033;-64
2022/09/25 02:43:20;;;;;;;17.65;11.90;;;14.30;99.90;;;;;;5034326;28;20185;-65
2022/09/25 02:46:14;;;;;;;14.07;10.95;;;14.20;99.90;;;;;;5035476;28;20021;-64
2022/09/25 02:48:48;;;;;;;14.98;12.00;;;14.30;99.90;;;;;;5036442;28;20478;-66
2022/09/25 02:51:35;;;;;;;14.25;11.20;;;14.30;99.90;;;;;;5036167;28;20033;-65
2022/09/25 02:54:10;;;;;;;15.57;11.93;;;14.40;99.90;;;;;;5036758;28;20036;-64
2022/09/25 02:56:56;;;;;;;17.27;11.75;;;14.30;99.90;;;;;;5039108;28;20060;-64
2022/09/25 02:59:33;;;;;;;18.00;11.98;;;14.20;99.90;;;;;;5035743;28;20022;-63
2022/09/25 03:02:00;;;;;;;15.75;11.85;;;14.30;99.90;;;;;;5034851;28;20534;-64
2022/09/25 03:04:28;;;;;;;16.45;11.98;;;14.30;99.90;;;;;;5032984;28;20026;-64
2022/09/25 03:06:55;;;;;;;16.33;11.55;;;14.30;99.90;;;;;;5034142;28;20017;-64
2022/09/25 03:09:22;;;;;;;16.52;11.82;;;14.30;99.90;;;;;;5034057;28;20029;-64
2022/09/25 03:11:48;;;;;;;16.45;11.63;;;14.40;99.90;;;;;;5034278;28;20356;-64
2022/09/25 03:14:13;;;;;;;18.15;12.48;;;14.40;99.90;;;;;;5032629;28;20030;-64
2022/09/25 03:16:50;;;;;;;16.88;12.45;;;14.30;99.90;;;;;;5033885;28;20033;-64
2022/09/25 03:19:20;;;;;;;15.55;11.32;;;14.40;99.90;;;;;;5034238;28;20064;-64
2022/09/25 03:21:46;;;;;;;14.55;11.48;;;14.40;99.90;;;;;;5032509;28;20386;-64
2022/09/25 03:24:12;;;;;;;20.25;12.73;;;14.30;99.90;;;;;;5033678;28;20017;-64
2022/09/25 03:26:39;;;;;;;18.40;12.55;;;14.20;99.90;;;;;;5033647;28;20171;-64
2022/09/25 03:29:05;;;;;;;17.02;12.88;;;14.20;99.90;;;;;;5032753;28;20482;-64
2022/09/25 03:31:31;;;;;;;19.73;13.35;;;14.30;99.90;;;;;;5033806;28;20033;-63
2022/09/25 03:33:57;;;;;;;;;;;14.30;99.90;;;;;;5034203;28;20033;-64
2022/09/25 03:36:24;;;;;;;17.85;13.40;;;14.30;99.90;;;;;;5033641;28;19912;-64
2022/09/25 03:38:52;;;;;;;18.25;13.82;;;14.20;99.90;;;;;;5033593;28;20390;-64
2022/09/25 03:41:20;;;;;;;17.13;13.05;;;14.10;99.90;;;;;;5032742;28;20087;-65
2022/09/25 03:43:50;;;;;;;20.45;15.00;;;14.20;99.90;;;;;;5034014;28;20021;-63
2022/09/25 03:46:18;;;;;;;22.35;15.02;;;14.10;99.90;;;;;;5033565;28;20025;-64
2022/09/25 03:48:43;;;;;;;18.42;13.68;;;14.10;99.90;;;;;;5035002;28;20025;-63
2022/09/25 03:51:09;;;;;;;19.25;15.50;;;14.10;99.90;;;;;;5034852;28;20543;-64
2022/09/25 03:53:35;;;;;;;21.48;15.57;;;14.30;99.90;;;;;;5034349;28;20038;-64
2022/09/25 03:56:07;;;;;;;21.58;14.85;;;14.30;99.90;;;;;;5034255;28;20363;-63
2022/09/25 03:58:34;;;;;;;23.27;15.93;;;14.30;99.90;;;;;;5034144;28;20064;-64
2022/09/25 04:01:00;;;;;;;22.27;16.65;;;14.40;99.90;;;;;;5033991;28;20018;-63
2022/09/25 04:03:27;;;;;;;24.48;16.05;;;14.50;99.90;;;;;;5033593;28;20359;-63
2022/09/25 04:05:57;;;;;;;20.60;16.48;;;14.50;99.90;;;;;;5033663;28;20026;-64
2022/09/25 04:08:25;;;;;;;22.50;16.80;;;14.40;99.90;;;;;;5032181;28;20501;-64
2022/09/25 04:10:55;;;;;;;22.60;16.83;;;14.40;99.90;;;;;;5033476;28;20033;-64
2022/09/25 04:13:21;;;;;;;22.17;16.90;;;14.30;99.90;;;;;;5033118;28;20106;-64
2022/09/25 04:15:47;;;;;;;23.33;17.02;;;14.30;99.90;;;;;;5033464;28;20032;-64
2022/09/25 04:18:13;;;;;;;23.08;16.98;;;14.30;99.90;;;;;;5033109;28;20475;-64
2022/09/25 04:20:39;;;;;;;22.20;15.40;;;14.30;99.90;;;;;;5032258;28;20092;-63
2022/09/25 04:23:04;;;;;;;21.63;16.42;;;14.40;99.90;;;;;;5033260;28;20264;-64
2022/09/25 04:25:30;;;;;;;23.38;16.85;;;14.40;99.90;;;;;;5033106;28;20041;-64
2022/09/25 04:27:57;;;;;;;23.00;16.63;;;14.40;99.90;;;;;;5033222;28;20096;-64
2022/09/25 04:30:24;;;;;;;23.63;16.80;;;14.30;99.90;;;;;;5033427;28;20104;-64
2022/09/25 04:33:50;;;;;;;23.80;16.83;;;14.30;99.90;;;;;;5034363;28;20090;-64
2022/09/25 04:35:45;;;;;;;20.33;16.33;;;14.30;99.90;;;;;;5021307;28;20108;-64
2022/09/25 04:38:10;;;;;;;24.07;16.27;;;14.20;99.90;;;;;;5033855;28;20061;-63
2022/09/25 04:40:36;;;;;;;23.43;16.67;;;14.20;99.90;;;;;;5033430;28;20021;-63
2022/09/25 04:43:04;;;;;;;24.13;16.42;;;14.40;99.90;;;;;;5033404;28;20026;-63
2022/09/25 04:45:33;;;;;;;23.30;16.88;;;14.40;99.90;;;;;;5032945;28;20479;-63
2022/09/25 04:47:59;;;;;;;24.23;18.05;;;14.30;99.90;;;;;;5033249;28;20032;-62
2022/09/25 04:50:27;;;;;;;23.75;16.42;;;14.30;99.90;;;;;;5033119;28;20037;-63
2022/09/25 04:52:53;;;;;;;20.75;16.35;;;14.10;99.90;;;;;;5033942;28;20033;-64
2022/09/25 04:55:23;;;;;;;28.13;16.73;;;14.20;99.90;;;;;;5036843;28;20093;-64
2022/09/25 04:57:52;;;;;;;19.92;16.08;;;14.20;99.90;;;;;;5036918;28;20026;-65
2022/09/25 05:00:18;;;;;;;21.00;17.13;;;14.20;99.90;;;;;;5035226;28;20520;-64
2022/09/25 05:02:44;;;;;;;22.63;16.20;;;14.30;99.90;;;;;;5035041;28;20025;-64
2022/09/25 05:05:10;;;;;;;;;;;14.20;99.90;;;;;;5037210;28;20029;-63
2022/09/25 05:07:35;;;;;;;21.48;14.95;;;14.20;99.90;;;;;;5036293;28;19905;-64
2022/09/25 05:10:01;;;;;;;21.33;15.97;;;14.20;99.90;;;;;;5037204;28;20033;-65
2022/09/25 05:12:26;;;;;;;26.43;17.40;;;14.20;99.90;;;;;;5037377;28;20049;-64
2022/09/25 05:14:52;;;;;;;19.80;15.45;;;14.10;99.90;;;;;;5036145;28;20375;-64
2022/09/25 05:17:17;;;;;;;19.93;15.63;;;14.10;99.90;;;;;;5036061;28;20552;-64
2022/09/25 05:19:43;;;;;;;18.37;14.63;;;14.00;99.90;;;;;;5036013;28;20025;-64
2022/09/25 05:22:08;;;;;;;19.57;13.77;;;14.20;99.90;;;;;;5034736;28;20040;-64
2022/09/25 05:24:34;;;;;;;19.47;14.50;;;14.20;99.90;;;;;;5036302;28;20026;-64
2022/09/25 05:26:59;;;;;;;20.33;14.97;;;14.40;99.90;;;;;;5034788;28;20021;-64
2022/09/25 05:29:25;;;;;;;21.23;14.63;;;14.40;99.90;;;;;;5035978;28;20040;-64
2022/09/25 05:31:50;;;;;;;20.67;15.73;;;14.40;99.90;;;;;;5035784;28;20037;-64
2022/09/25 05:34:16;;;;;;;19.97;15.43;;;14.40;99.90;;;;;;5035832;28;20029;-64
2022/09/25 05:36:42;;;;;;;19.87;15.27;;;14.40;99.90;;;;;;5035609;28;20044;-64
2022/09/25 05:39:10;;;;;;;23.13;15.88;;;14.20;99.90;;;;;;5035660;28;20025;-64
2022/09/25 05:41:36;;;;;;;21.27;15.25;;;14.20;99.90;;;;;;5035651;28;20033;-64
2022/09/25 05:44:08;;;;;;;19.60;16.13;;;14.20;99.90;;;;;;5035574;28;20057;-64
2022/09/25 05:46:37;;;;;;;21.75;16.20;;;14.20;99.90;;;;;;5035499;28;20022;-64
2022/09/25 05:49:03;;;;;;;21.55;15.82;;;14.10;99.90;;;;;;5035790;28;20021;-64
2022/09/25 05:51:29;;;;;;;;;;;14.20;99.90;;;;;;5034596;28;20087;-64
2022/09/25 05:53:55;;;;;;;18.75;13.63;;;14.30;99.90;;;;;;5035727;28;20353;-64
2022/09/25 05:56:23;;;;;;;19.37;15.27;;;14.30;99.90;;;;;;5035352;28;20406;-64
2022/09/25 05:58:49;;;;;;;19.92;13.95;;;14.20;99.90;;;;;;5035376;28;20024;-64
2022/09/25 06:01:15;;;;;;;18.85;14.80;;;14.30;99.90;;;;;;5035222;28;20097;-64
2022/09/25 06:03:41;;;;;;;19.30;13.13;;;14.30;99.90;;;;;;5035213;28;20061;-64
2022/09/25 06:06:06;;;;;;;18.33;14.13;;;14.40;99.90;;;;;;5034619;28;20386;-64
2022/09/25 06:08:34;;;;;;;19.53;13.53;;;14.50;99.90;;;;;;5035492;28;20034;-64
2022/09/25 06:11:01;;;;;;;15.68;12.23;;;14.40;99.90;;;;;;5035072;28;20024;-64
2022/09/25 06:13:29;;;;;;;17.42;14.02;;;14.40;99.90;;;;;;5033879;28;20454;-64
2022/09/25 06:15:55;;;;;;;16.73;12.13;;;14.40;99.90;;;;;;5034999;28;20473;-64
2022/09/25 06:18:23;;;;;;;15.15;11.23;;;14.30;99.90;;;;;;5035135;28;20032;-63
2022/09/25 06:20:50;;;;;;;12.80;9.80;;;14.50;99.90;;;;;;5033616;28;20124;-64
2022/09/25 06:23:17;;;;;;;12.73;10.02;;;14.60;99.90;;;;;;5034940;28;20386;-63
2022/09/25 06:25:43;;;;;;;13.77;10.73;;;14.60;99.90;;;;;;5035110;28;20079;-63
2022/09/25 06:28:10;;;;;;;15.40;11.05;;;14.60;99.90;;;;;;5034850;28;20025;-63
2022/09/25 06:30:37;;;;;;;15.38;10.95;;;14.50;99.90;;;;;;5034978;28;20036;-63
2022/09/25 06:33:06;;;;;;;12.98;10.23;;;14.50;99.90;;;;;;5035022;28;20025;-63
2022/09/25 06:35:33;;;;;;;12.02;9.05;;;14.40;99.90;;;;;;5034776;28;20029;-64
2022/09/25 06:38:00;;;;;;;9.15;7.72;;;14.40;99.90;;;;;;5034535;28;20029;-64
2022/09/25 06:40:27;;;;;;;8.23;6.75;;;14.40;99.90;;;;;;5035706;28;20359;-64
2022/09/25 06:42:57;;;;;;;9.77;6.13;;;14.20;99.90;;;;;;5035293;28;20020;-64
2022/09/25 06:45:24;;;;;;;7.88;5.53;;;14.20;99.90;;;;;;5033720;28;20021;-64
2022/09/25 06:47:49;;;;;;;;;;;14.30;99.90;;;;;;5035056;28;20024;-63
2022/09/25 06:50:15;;;;;;;11.88;9.30;;;14.40;99.90;;;;;;5034737;28;19905;-65
2022/09/25 06:52:42;;;;;;;14.43;10.43;;;14.50;99.90;;;;;;5035072;28;20496;-65
2022/09/25 06:55:08;;;;;;;13.98;10.38;;;14.50;99.90;;;;;;5034764;28;20280;-65
2022/09/25 06:57:36;;;;;;;14.75;10.82;;;14.40;99.90;;;;;;5032985;28;20067;-65
2022/09/25 07:00:02;;;;;;;17.77;10.18;;;14.40;99.90;;;;;;5035411;28;20036;-65
2022/09/25 07:05:12;;;;;;;15.25;10.07;;;14.50;99.90;;;;;;5035571;28;20024;-65
2022/09/25 07:07:38;;;;;;;14.43;10.20;;;14.50;99.90;;;;;;5035007;28;20029;-65
2022/09/25 07:10:04;;;;;;;12.30;10.23;;;14.50;99.90;;;;;;5036386;28;20048;-65
2022/09/25 07:12:31;;;;;;;14.27;10.80;;;14.50;99.90;;;;;;5035614;28;20489;-64
2022/09/25 07:14:56;;;;;;;13.07;10.18;;;14.40;99.90;;;;;;5035135;28;20033;-64
2022/09/25 07:17:22;;;;;;;14.07;10.60;;;14.40;99.90;;;;;;5033726;28;20036;-64
2022/09/25 07:19:47;;;;;;;13.73;10.23;;;14.40;99.90;;;;;;5034131;28;20043;-63
2022/09/25 07:22:13;;;;;;;14.13;11.00;;;14.40;99.90;;;;;;5034590;28;20029;-64
2022/09/25 07:24:38;;;;;;;14.17;9.73;;;14.30;99.90;;;;;;5034069;28;20025;-64
2022/09/25 07:27:04;;;;;;;14.07;10.70;;;14.40;99.90;;;;;;5033697;28;20033;-64
2022/09/25 07:29:30;;;;;;;14.82;10.13;;;14.40;99.90;;;;;;5033709;28;20043;-64
2022/09/25 07:31:55;;;;;;;14.10;10.25;;;14.50;99.90;;;;;;5033653;28;20125;-64
2022/09/25 07:34:21;;;;;;;12.27;10.40;;;14.50;99.90;;;;;;5033868;28;20030;-64
2022/09/25 07:36:46;;;;;;;13.23;9.83;;;14.70;99.90;;;;;;5033642;28;20034;-65
2022/09/25 07:39:12;;;;;;;13.67;10.43;;;14.60;99.90;;;;;;5033779;28;20264;-65
2022/09/25 07:41:38;;;;;;;15.67;10.53;;;14.60;99.90;;;;;;5034143;28;20037;-64
2022/09/25 07:44:04;;;;;;;17.87;11.30;;;14.70;99.90;;;;;;5033952;28;20684;-65
2022/09/25 07:46:30;;;;;;;13.35;10.70;;;14.70;99.90;;;;;;5033553;28;20025;-65
2022/09/25 07:48:56;;;;;;;13.50;10.68;;;14.80;99.90;;;;;;5033452;28;20078;-65
2022/09/25 07:51:22;;;;;;;16.20;10.55;;;14.90;99.90;;;;;;5033311;28;20025;-65
2022/09/25 07:53:48;;;;;;;16.17;10.57;;;14.70;99.90;;;;;;5033376;28;20021;-65
2022/09/25 07:56:14;;;;;;;15.20;10.43;;;14.80;99.90;;;;;;5033031;28;20397;-64
2022/09/25 07:58:40;;;;;;;15.07;11.25;;;14.90;99.90;;;;;;5031846;28;20029;-64
2022/09/25 08:01:09;;;;;;;15.38;11.00;;;14.90;99.90;;;;;;5031923;28;20053;-65
2022/09/25 08:03:35;;;;;;;13.75;10.63;;;14.80;99.90;;;;;;5032069;28;20407;-64
2022/09/25 08:06:08;;;;;;;14.17;10.87;;;14.90;99.90;;;;;;5033223;28;20140;-64
2022/09/25 08:08:34;;;;;;;14.25;11.07;;;14.90;99.90;;;;;;5033572;28;20017;-65
2022/09/25 08:11:01;;;;;;;13.60;11.15;;;15.00;99.90;;;;;;5033216;28;20030;-65
2022/09/25 08:13:27;;;;;;;13.93;10.80;;;15.00;99.90;;;;;;5032996;28;20033;-65
2022/09/25 08:15:53;;;;;;;15.20;11.57;;;15.00;99.90;;;;;;5032739;28;20037;-65
2022/09/25 08:18:19;;;;;;;15.32;11.82;;;14.90;99.90;;;;;;5032611;28;20033;-63
2022/09/25 08:20:45;;;;;;;15.95;12.35;;;15.00;99.90;;;;;;5033260;28;20034;-64
2022/09/25 08:23:10;;;;;;;19.17;13.02;;;15.00;99.90;;;;;;5033409;28;20025;-63
2022/09/25 08:25:36;;;;;;;16.03;11.13;;;15.10;99.90;;;;;;5033303;28;20071;-64
2022/09/25 08:28:01;;;;;;;15.23;12.07;;;15.10;99.90;;;;;;5034615;28;20755;-63
2022/09/25 08:30:28;;;;;;;16.83;11.07;;;15.20;99.90;;;;;;5037399;28;20390;-64
2022/09/25 08:32:53;;;;;;;18.95;11.35;;;15.20;99.90;;;;;;5036917;28;20104;-64
2022/09/25 08:35:20;;;;;;;25.75;12.50;;;15.30;99.90;;;;;;5036899;28;20489;-65
2022/09/25 08:37:47;;;;;;;17.17;12.35;;;15.40;99.90;;;;;;5036925;28;20021;-64
2022/09/25 08:40:18;;;;;;;16.42;13.32;;;15.40;99.90;;;;;;5036706;28;20037;-66
2022/09/25 08:42:47;;;;;;;16.83;11.95;;;15.60;99.90;;;;;;5036680;28;20071;-66
2022/09/25 08:51:15;;;;;;;18.00;12.63;;;15.70;99.90;;;;;;5037354;28;20497;-67
2022/09/25 08:53:43;;;;;;;18.60;13.27;;;15.50;99.90;;;;;;5037307;28;20045;-64
2022/09/25 08:56:16;;;;;;;17.02;12.75;;;15.50;99.90;;;;;;5037093;28;20449;-71
2022/09/25 08:58:51;;;;;;;18.27;13.25;;;15.60;99.90;;;;;;5059654;23;20045;-65
2022/09/25 09:01:24;;;;;;;17.52;13.20;;;15.90;99.90;;;;;;5037702;28;20017;-65
2022/09/25 09:03:52;;;;;;;18.27;13.50;;;16.10;99.90;;;;;;5036710;28;20026;-64
2022/09/25 09:06:18;;;;;;;18.40;13.27;;;16.20;99.90;;;;;;5037338;28;20029;-65
2022/09/25 09:09:06;;;;;;;16.00;12.75;;;16.40;99.90;;;;;;5035490;28;20025;-64
2022/09/25 09:11:39;;;;;;;20.90;13.70;;;16.30;99.90;;;;;;5036417;28;20057;-65
2022/09/25 09:14:14;;;;;;;18.33;12.63;;;16.20;99.90;;;;;;5036213;28;20490;-62
2022/09/25 09:16:57;;;;;;;19.58;12.30;;;16.40;99.90;;;;;;5036086;28;20025;-64
2022/09/25 09:19:23;;;;;;;17.13;12.45;;;16.40;99.90;;;;;;5035250;28;20029;-66
2022/09/25 09:22:20;;;;;;;15.40;12.10;;;16.60;99.90;;;;;;5036118;28;20021;-65
2022/09/25 09:25:02;;;;;;;15.80;12.13;;;16.60;99.90;;;;;;4956023;29;20106;-66
2022/09/25 09:27:40;;;;;;;16.45;11.73;;;16.20;99.90;;;;;;4955892;29;20452;-63
2022/09/25 09:30:21;;;;;;;19.63;13.77;;;16.00;99.90;;;;;;4955866;29;20040;-64
2022/09/25 09:32:54;;;;;;;17.75;12.82;;;15.90;99.90;;;;;;4955665;29;20114;-66
2022/09/25 09:35:45;;;;;;;17.98;12.90;;;16.00;99.90;;;;;;4955751;29;20508;-66
2022/09/25 09:38:31;;;;;;;16.85;11.90;;;15.90;99.90;;;;;;4939508;29;20035;-68
2022/09/25 09:41:48;;;;;;;15.43;13.20;;;15.90;99.90;;;;;;4955197;29;20043;-65
2022/09/25 09:44:25;;;;;;;14.82;11.55;;;15.80;99.90;;;;;;4950993;29;20039;-68
2022/09/25 09:47:09;;;;;;;;;;;15.80;99.90;;;;;;4954516;29;20102;-64
2022/09/25 09:49:57;;;;;;;13.02;9.90;;;16.10;99.90;;;;;;4955618;29;19906;-66
2022/09/25 09:52:36;;;;;;;12.68;9.40;;;16.60;99.90;;;;;;4955490;29;20044;-65
2022/09/25 09:55:14;;;;;;;11.23;9.18;;;17.10;99.90;;;;;;4955734;29;20042;-66
2022/09/25 09:57:46;;;;;;;13.65;9.38;;;17.10;99.90;;;;;;4955672;29;20039;-67
2022/09/25 10:00:15;;;;;;;11.75;8.18;;;18.10;99.90;;;;;;4963358;28;20043;-64
2022/09/25 10:03:32;;;;;;;13.35;9.20;;;19.30;99.90;;;;;;5036232;28;20022;-66
2022/09/25 10:06:01;;;;;;;12.82;9.32;;;18.90;99.90;;;;;;4955778;29;20097;-65
2022/09/25 10:08:28;;;;;;;11.93;8.30;;;18.50;99.90;;;;;;4954896;29;20419;-65
2022/09/25 10:10:54;;;;;;;10.30;7.20;;;17.90;99.90;;;;;;4955231;29;20042;-67
2022/09/25 10:13:24;;;;;;;7.72;6.40;;;17.40;99.90;;;;;;4955475;29;20520;-65
2022/09/25 10:16:05;;;;;;;9.63;6.20;;;16.90;99.90;;;;;;4955023;29;20663;-67
2022/09/25 10:18:37;;;;;;;9.50;7.25;;;16.50;99.90;;;;;;4955502;29;20050;-66
2022/09/25 10:21:12;;;;;;;8.82;6.53;;;16.20;99.90;;;;;;4955554;29;20027;-69
2022/09/25 10:23:49;;;;;;;12.30;7.97;;;15.80;99.90;;;;;;4955525;29;20035;-68
2022/09/25 10:26:38;;;;;;;9.10;6.60;;;15.50;99.90;;;;;;4955066;29;20158;-65
2022/09/25 10:29:25;;;;;;;7.97;6.88;;;15.30;99.90;;;;;;4954649;29;20023;-68
2022/09/25 10:32:01;;;;;;;9.48;7.38;;;15.20;99.90;;;;;;4954973;29;20030;-68
2022/09/25 10:34:28;;;;;;;7.97;6.50;;;15.20;99.90;;;;;;4954943;29;20460;-67
2022/09/25 10:36:54;;;;;;;8.48;6.28;;;15.30;99.90;;;;;;5009194;28;20083;-65
2022/09/25 10:39:33;;;;;;;8.27;6.85;;;15.20;99.90;;;;;;5035132;28;20025;-65
2022/09/25 10:42:00;;;;;;;8.00;6.25;;;15.30;99.90;;;;;;5036155;28;20214;-65
2022/09/25 10:44:34;;;;;;;8.93;6.72;;;15.20;99.90;;;;;;5034795;28;20026;-68
2022/09/25 10:50:21;;;;;;;6.70;5.50;;;15.10;99.90;;;;;;5034646;28;20033;-68
2022/09/25 10:52:48;;;;;;;8.30;6.60;;;15.00;99.90;;;;;;5035789;28;20366;-69
2022/09/25 10:55:30;;;;;;;10.30;7.63;;;14.90;99.90;;;;;;5035870;28;20045;-69
2022/09/25 10:58:01;;;;;;;9.98;7.43;;;14.90;99.90;;;;;;5034937;28;20033;-69
2022/09/25 11:00:28;;;;;;;9.40;7.15;;;15.00;99.90;;;;;;5033426;28;20025;-67
2022/09/25 11:02:58;;;;;;;12.40;7.63;;;15.10;99.90;;;;;;5034059;28;20026;-66
2022/09/25 11:05:32;;;;;;;9.90;7.85;;;15.10;99.90;;;;;;5035424;28;20083;-68
2022/09/25 11:08:02;;;;;;;10.02;7.80;;;15.10;99.90;;;;;;5033916;28;20033;-65
2022/09/25 11:10:35;;;;;;;9.65;7.43;;;15.00;99.90;;;;;;5033563;28;20030;-68
2022/09/25 11:13:17;;;;;;;10.57;7.70;;;14.90;99.90;;;;;;5036612;28;20025;-71
2022/09/25 11:15:52;;;;;;;9.40;7.45;;;15.00;99.90;;;;;;5036454;28;20048;-70
2022/09/25 11:18:38;;;;;;;8.18;6.50;;;14.90;99.90;;;;;;5035885;28;20382;-70
2022/09/25 11:21:05;;;;;;;7.53;6.32;;;15.00;99.90;;;;;;5032728;28;20060;-70
2022/09/25 11:23:40;;;;;;;11.27;6.32;;;15.00;99.90;;;;;;5033596;28;20030;-68
2022/09/25 11:26:14;;;;;;;8.05;5.55;;;15.10;99.90;;;;;;5034124;28;20029;-68
2022/09/25 11:28:53;;;;;;;7.95;5.80;;;15.30;99.90;;;;;;5032648;28;20094;-67
2022/09/25 11:31:41;;;;;;;6.57;5.38;;;15.30;99.90;;;;;;5034124;28;20036;-66
2022/09/25 11:34:42;;;;;;;7.32;5.85;;;15.20;99.90;;;;;;5034393;28;20394;-68
2022/09/25 11:37:19;;;;;;;5.82;5.05;;;15.30;99.90;;;;;;5032783;28;20375;-68
2022/09/25 11:42:50;;;;;;;7.57;4.90;;;15.40;99.90;;;;;;5034940;28;19911;-67
2022/09/25 11:45:24;;;;;;;6.75;4.47;;;15.80;99.90;;;;;;5034367;28;20056;-68
2022/09/25 11:48:04;;;;;;;4.88;4.15;;;15.80;99.90;;;;;;5034333;28;20026;-67
2022/09/25 11:51:02;;;;;;;5.03;4.00;;;15.60;99.90;;;;;;5034175;28;20037;-67
2022/09/25 11:53:52;;;;;;;4.80;4.30;;;16.10;99.90;;;;;;5033888;28;20049;-67
2022/09/25 11:56:30;;;;;;;4.40;3.97;;;16.00;99.90;;;;;;5032963;28;20060;-67
2022/09/25 11:59:10;;;;;;;5.53;4.15;;;15.90;99.90;;;;;;5033787;28;20068;-67
2022/09/25 12:01:49;;;;;;;5.90;4.40;;;15.90;99.90;;;;;;5033285;28;20024;-67
2022/09/25 12:04:23;;;;;;;5.68;4.65;;;16.10;99.90;;;;;;5033349;28;20030;-66
2022/09/25 12:07:04;;;;;;;5.60;4.55;;;16.20;99.90;;;;;;5032761;28;20167;-67
2022/09/25 12:10:03;;;;;;;6.70;4.55;;;16.40;99.90;;;;;;5032438;28;20029;-68
2022/09/25 12:12:32;;;;;;;5.60;5.00;;;16.10;99.90;;;;;;5033318;28;20033;-67
2022/09/25 12:15:16;;;;;;;6.43;4.85;;;16.40;99.90;;;;;;5033269;28;20017;-68
2022/09/25 12:17:59;;;;;;;6.55;5.78;;;16.70;99.90;;;;;;5032192;28;20079;-67
2022/09/25 12:20:44;;;;;;;5.80;4.65;;;16.80;99.90;;;;;;5033528;28;20102;-68
2022/09/25 12:23:21;;;;;;;6.90;5.47;;;16.70;99.90;;;;;;5033717;28;20030;-68
2022/09/25 12:26:15;;;;;;;6.38;5.68;;;16.90;99.90;;;;;;5032567;28;20026;-68
2022/09/25 12:29:12;;;;;;;4.07;3.67;;;17.10;99.90;;;;;;5033378;28;20068;-69
2022/09/25 12:31:40;;;;;;;5.45;4.25;;;17.20;99.90;;;;;;5033269;28;20021;-68
2022/09/25 12:34:14;;;;;;;6.88;5.43;;;17.40;99.90;;;;;;5033402;28;20036;-68
2022/09/25 12:36:55;;;;;;;6.13;4.68;;;17.50;99.90;;;;;;5033434;28;20081;-69
2022/09/25 12:39:36;;;;;;;6.05;4.65;;;17.30;99.90;;;;;;5033166;28;20030;-69
2022/09/25 12:42:16;;;;;;;6.72;5.57;;;17.10;99.90;;;;;;5033808;28;20018;-68
2022/09/25 12:44:59;;;;;;;7.00;5.25;;;17.10;99.90;;;;;;5033656;28;20024;-69
2022/09/25 12:47:36;;;;;;;6.32;5.00;;;17.20;99.90;;;;;;5031881;28;20108;-68
2022/09/25 12:50:22;;;;;;;7.45;5.70;;;17.20;99.90;;;;;;5033211;28;20430;-69
2022/09/25 12:53:00;;;;;;;6.97;4.70;;;17.10;99.90;;;;;;5032324;28;20045;-69
2022/09/25 12:55:36;;;;;;;7.07;5.15;;;17.10;99.90;;;;;;5033268;28;20036;-68
2022/09/25 12:58:20;;;;;;;6.20;5.35;;;17.10;99.90;;;;;;5032898;28;20075;-68
2022/09/25 13:00:51;;;;;;;7.53;4.65;;;17.20;99.90;;;;;;5031666;28;20113;-68
2022/09/25 13:03:26;;;;;;;8.70;5.68;;;17.20;99.90;;;;;;5032820;28;20492;-68
2022/09/25 13:06:11;;;;;;;7.03;4.90;;;17.00;99.90;;;;;;5031464;28;20083;-68
2022/09/25 13:08:47;;;;;;;5.03;4.53;;;17.20;99.90;;;;;;5032673;28;20028;-68
2022/09/25 13:11:37;;;;;;;5.60;4.10;;;17.40;99.90;;;;;;5032551;28;20029;-68
2022/09/25 13:14:08;;;;;;;6.63;4.45;;;17.50;99.90;;;;;;5034278;28;20029;-69
2022/09/25 13:16:34;;;;;;;5.80;4.20;;;17.60;99.90;;;;;;5034753;28;20029;-68
2022/09/25 13:19:22;;;;;;;5.75;4.45;;;17.50;99.90;;;;;;5035093;28;20029;-68
2022/09/25 13:21:47;;;;;;;5.53;4.32;;;17.50;99.90;;;;;;5036387;28;20032;-67